sensor_id;sensor_type;location;lat;lon;timestamp;temperature;humidity
6174;DHT22;3120;48.796;9.796;2023-09-12T00:00:44;17.20;99.90
6174;DHT22;3120;48.796;9.796;2023-09-12T00:03:10;17.20;99.90
6174;DHT22;3120;48.796;9.796;2023-09-12T00:05:36;17.70;99.90
6174;DHT22;3120;48.796;9.796;2023-09-12T00:08:01;17.20;99.90
6174;DHT22;3120;48.796;9.796;2023-09-12T00:10:29;17.40;99.90
6174;DHT22;3120;48.796;9.796;2023-09-12T00:12:54;17.70;99.90
6174;DHT22;3120;48.796;9.796;2023-09-12T00:15:20;17.20;99.90
6174;DHT22;3120;48.796;9.796;2023-09-12T00:17:46;17.30;99.90
6174;DHT22;3120;48.796;9.796;2023-09-12T00:20:13;17.10;99.90
6174;DHT22;3120;48.796;9.796;2023-09-12T00:22:39;17.10;99.90
6174;DHT22;3120;48.796;9.796;2023-09-12T00:25:05;17.60;99.90
6174;DHT22;3120;48.796;9.796;2023-09-12T00:27:30;17.00;99.90
6174;DHT22;3120;48.796;9.796;2023-09-12T00:29:56;16.80;99.90
6174;DHT22;3120;48.796;9.796;2023-09-12T00:32:21;17.00;99.90
6174;DHT22;3120;48.796;9.796;2023-09-12T00:34:46;16.70;99.90
6174;DHT22;3120;48.796;9.796;2023-09-12T00:37:12;16.90;99.90
6174;DHT22;3120;48.796;9.796;2023-09-12T00:39:38;17.70;99.90
6174;DHT22;3120;48.796;9.796;2023-09-12T00:42:03;17.30;99.90
6174;DHT22;3120;48.796;9.796;2023-09-12T00:44:29;16.80;99.90
6174;DHT22;3120;48.796;9.796;2023-09-12T00:46:54;16.80;99.90
6174;DHT22;3120;48.796;9.796;2023-09-12T00:49:20;17.00;99.90
6174;DHT22;3120;48.796;9.796;2023-09-12T00:51:47;16.80;99.90
6174;DHT22;3120;48.796;9.796;2023-09-12T00:54:14;16.90;99.90
6174;DHT22;3120;48.796;9.796;2023-09-12T00:56:39;16.90;99.90
6174;DHT22;3120;48.796;9.796;2023-09-12T00:59:05;17.00;99.90
6174;DHT22;3120;48.796;9.796;2023-09-12T01:01:32;17.00;99.90
6174;DHT22;3120;48.796;9.796;2023-09-12T01:03:59;17.00;99.90
6174;DHT22;3120;48.796;9.796;2023-09-12T01:06:24;17.30;99.90
6174;DHT22;3120;48.796;9.796;2023-09-12T01:08:51;17.50;99.90
6174;DHT22;3120;48.796;9.796;2023-09-12T01:11:17;17.10;99.90
6174;DHT22;3120;48.796;9.796;2023-09-12T01:13:42;16.80;99.90
6174;DHT22;3120;48.796;9.796;2023-09-12T01:16:08;17.40;99.90
6174;DHT22;3120;48.796;9.796;2023-09-12T01:18:34;16.80;99.90
6174;DHT22;3120;48.796;9.796;2023-09-12T01:21:04;16.60;99.90
6174;DHT22;3120;48.796;9.796;2023-09-12T01:28:59;16.70;99.90
6174;DHT22;3120;48.796;9.796;2023-09-12T01:31:25;16.70;99.90
6174;DHT22;3120;48.796;9.796;2023-09-12T01:33:54;17.10;99.90
6174;DHT22;3120;48.796;9.796;2023-09-12T01:36:20;16.60;99.90
6174;DHT22;3120;48.796;9.796;2023-09-12T01:38:45;17.00;99.90
6174;DHT22;3120;48.796;9.796;2023-09-12T01:41:11;16.50;99.90
6174;DHT22;3120;48.796;9.796;2023-09-12T01:43:37;17.20;99.90
6174;DHT22;3120;48.796;9.796;2023-09-12T01:46:04;16.50;99.90
6174;DHT22;3120;48.796;9.796;2023-09-12T01:48:33;17.40;99.90
6174;DHT22;3120;48.796;9.796;2023-09-12T01:51:02;16.50;99.90
6174;DHT22;3120;48.796;9.796;2023-09-12T01:53:28;16.40;99.90
6174;DHT22;3120;48.796;9.796;2023-09-12T01:55:54;16.30;99.90
6174;DHT22;3120;48.796;9.796;2023-09-12T01:58:22;16.20;99.90
6174;DHT22;3120;48.796;9.796;2023-09-12T02:00:48;17.00;99.90
6174;DHT22;3120;48.796;9.796;2023-09-12T02:03:14;16.40;99.90
6174;DHT22;3120;48.796;9.796;2023-09-12T02:05:39;16.60;99.90
6174;DHT22;3120;48.796;9.796;2023-09-12T02:08:05;16.40;99.90
6174;DHT22;3120;48.796;9.796;2023-09-12T02:10:31;16.50;99.90
6174;DHT22;3120;48.796;9.796;2023-09-12T02:12:57;16.30;99.90
6174;DHT22;3120;48.796;9.796;2023-09-12T02:15:22;17.10;99.90
6174;DHT22;3120;48.796;9.796;2023-09-12T02:17:48;16.20;99.90
6174;DHT22;3120;48.796;9.796;2023-09-12T02:20:15;16.80;99.90
6174;DHT22;3120;48.796;9.796;2023-09-12T02:22:41;16.40;99.90
6174;DHT22;3120;48.796;9.796;2023-09-12T02:25:06;16.40;99.90
6174;DHT22;3120;48.796;9.796;2023-09-12T02:27:33;16.20;99.90
6174;DHT22;3120;48.796;9.796;2023-09-12T02:29:58;16.20;99.90
6174;DHT22;3120;48.796;9.796;2023-09-12T02:32:24;16.10;99.90
6174;DHT22;3120;48.796;9.796;2023-09-12T02:34:49;16.20;99.90
6174;DHT22;3120;48.796;9.796;2023-09-12T02:37:15;16.30;99.90
6174;DHT22;3120;48.796;9.796;2023-09-12T02:39:41;16.10;99.90
6174;DHT22;3120;48.796;9.796;2023-09-12T02:42:06;16.10;99.90
6174;DHT22;3120;48.796;9.796;2023-09-12T02:44:34;15.90;99.90
6174;DHT22;3120;48.796;9.796;2023-09-12T02:47:00;15.80;99.90
6174;DHT22;3120;48.796;9.796;2023-09-12T02:49:25;15.90;99.90
6174;DHT22;3120;48.796;9.796;2023-09-12T02:51:51;15.70;99.90
6174;DHT22;3120;48.796;9.796;2023-09-12T02:54:16;16.60;99.90
6174;DHT22;3120;48.796;9.796;2023-09-12T02:56:42;16.10;99.90
6174;DHT22;3120;48.796;9.796;2023-09-12T02:59:07;16.00;99.90
6174;DHT22;3120;48.796;9.796;2023-09-12T03:01:33;16.00;99.90
6174;DHT22;3120;48.796;9.796;2023-09-12T03:03:58;16.10;99.90
6174;DHT22;3120;48.796;9.796;2023-09-12T03:06:24;16.10;99.90
6174;DHT22;3120;48.796;9.796;2023-09-12T03:08:49;15.90;99.90
6174;DHT22;3120;48.796;9.796;2023-09-12T03:11:15;16.00;99.90
6174;DHT22;3120;48.796;9.796;2023-09-12T03:13:40;16.00;99.90
6174;DHT22;3120;48.796;9.796;2023-09-12T03:16:13;15.90;99.90
6174;DHT22;3120;48.796;9.796;2023-09-12T03:18:39;15.90;99.90
6174;DHT22;3120;48.796;9.796;2023-09-12T03:21:04;15.60;99.90
6174;DHT22;3120;48.796;9.796;2023-09-12T03:23:30;16.40;99.90
6174;DHT22;3120;48.796;9.796;2023-09-12T03:25:59;15.60;99.90
6174;DHT22;3120;48.796;9.796;2023-09-12T03:28:25;15.50;99.90
6174;DHT22;3120;48.796;9.796;2023-09-12T03:30:50;15.70;99.90
6174;DHT22;3120;48.796;9.796;2023-09-12T03:33:16;16.30;99.90
6174;DHT22;3120;48.796;9.796;2023-09-12T03:35:42;15.70;99.90
6174;DHT22;3120;48.796;9.796;2023-09-12T03:38:08;16.40;99.90
6174;DHT22;3120;48.796;9.796;2023-09-12T03:40:33;15.60;99.90
6174;DHT22;3120;48.796;9.796;2023-09-12T03:42:59;15.70;99.90
6174;DHT22;3120;48.796;9.796;2023-09-12T03:45:24;15.70;99.90
6174;DHT22;3120;48.796;9.796;2023-09-12T03:47:50;15.80;99.90
6174;DHT22;3120;48.796;9.796;2023-09-12T03:50:16;16.10;99.90
6174;DHT22;3120;48.796;9.796;2023-09-12T03:52:41;16.60;99.90
6174;DHT22;3120;48.796;9.796;2023-09-12T03:55:07;15.50;99.90
6174;DHT22;3120;48.796;9.796;2023-09-12T03:57:33;15.50;99.90
6174;DHT22;3120;48.796;9.796;2023-09-12T03:59:58;15.80;99.90
6174;DHT22;3120;48.796;9.796;2023-09-12T04:02:24;15.60;99.90
6174;DHT22;3120;48.796;9.796;2023-09-12T04:04:49;16.00;99.90
6174;DHT22;3120;48.796;9.796;2023-09-12T04:07:15;15.50;99.90
6174;DHT22;3120;48.796;9.796;2023-09-12T04:09:41;15.50;99.90
6174;DHT22;3120;48.796;9.796;2023-09-12T04:12:06;15.30;99.90
6174;DHT22;3120;48.796;9.796;2023-09-12T04:14:34;15.30;99.90
6174;DHT22;3120;48.796;9.796;2023-09-12T04:16:59;15.40;99.90
6174;DHT22;3120;48.796;9.796;2023-09-12T04:19:25;15.70;99.90
6174;DHT22;3120;48.796;9.796;2023-09-12T04:21:50;15.40;99.90
6174;DHT22;3120;48.796;9.796;2023-09-12T04:24:16;15.30;99.90
6174;DHT22;3120;48.796;9.796;2023-09-12T04:26:43;15.70;99.90
6174;DHT22;3120;48.796;9.796;2023-09-12T04:29:09;15.70;99.90
6174;DHT22;3120;48.796;9.796;2023-09-12T04:31:35;16.20;99.90
6174;DHT22;3120;48.796;9.796;2023-09-12T04:34:00;16.00;99.90
6174;DHT22;3120;48.796;9.796;2023-09-12T04:36:26;15.90;99.90
6174;DHT22;3120;48.796;9.796;2023-09-12T04:38:51;16.00;99.90
6174;DHT22;3120;48.796;9.796;2023-09-12T04:41:17;15.30;99.90
6174;DHT22;3120;48.796;9.796;2023-09-12T04:43:43;15.50;99.90
6174;DHT22;3120;48.796;9.796;2023-09-12T04:46:10;15.50;99.90
6174;DHT22;3120;48.796;9.796;2023-09-12T04:48:35;15.80;99.90
6174;DHT22;3120;48.796;9.796;2023-09-12T04:51:02;15.60;99.90
6174;DHT22;3120;48.796;9.796;2023-09-12T04:53:27;15.40;99.90
6174;DHT22;3120;48.796;9.796;2023-09-12T04:55:59;15.50;99.90
6174;DHT22;3120;48.796;9.796;2023-09-12T04:58:24;15.30;99.90
6174;DHT22;3120;48.796;9.796;2023-09-12T05:00:50;15.50;99.90
6174;DHT22;3120;48.796;9.796;2023-09-12T05:03:15;15.50;99.90
6174;DHT22;3120;48.796;9.796;2023-09-12T05:05:41;15.30;99.90
6174;DHT22;3120;48.796;9.796;2023-09-12T05:08:07;15.60;99.90
6174;DHT22;3120;48.796;9.796;2023-09-12T05:10:32;15.70;99.90
6174;DHT22;3120;48.796;9.796;2023-09-12T05:12:58;15.90;99.90
6174;DHT22;3120;48.796;9.796;2023-09-12T05:15:23;15.60;99.90
6174;DHT22;3120;48.796;9.796;2023-09-12T05:17:49;15.50;99.90
6174;DHT22;3120;48.796;9.796;2023-09-12T05:20:14;15.40;99.90
6174;DHT22;3120;48.796;9.796;2023-09-12T05:22:40;15.40;99.90
6174;DHT22;3120;48.796;9.796;2023-09-12T05:25:05;15.40;99.90
6174;DHT22;3120;48.796;9.796;2023-09-12T05:27:30;15.60;99.90
6174;DHT22;3120;48.796;9.796;2023-09-12T05:29:56;15.50;99.90
6174;DHT22;3120;48.796;9.796;2023-09-12T05:32:21;15.50;99.90
6174;DHT22;3120;48.796;9.796;2023-09-12T05:34:47;15.50;99.90
6174;DHT22;3120;48.796;9.796;2023-09-12T05:37:15;15.90;99.90
6174;DHT22;3120;48.796;9.796;2023-09-12T05:39:40;16.70;99.90
6174;DHT22;3120;48.796;9.796;2023-09-12T05:42:06;15.80;99.90
6174;DHT22;3120;48.796;9.796;2023-09-12T05:44:31;15.70;99.90
6174;DHT22;3120;48.796;9.796;2023-09-12T05:46:57;16.40;99.90
6174;DHT22;3120;48.796;9.796;2023-09-12T05:49:23;15.80;99.90
6174;DHT22;3120;48.796;9.796;2023-09-12T05:51:48;15.60;99.90
6174;DHT22;3120;48.796;9.796;2023-09-12T05:54:14;16.00;99.90
6174;DHT22;3120;48.796;9.796;2023-09-12T05:56:39;16.00;99.90
6174;DHT22;3120;48.796;9.796;2023-09-12T05:59:05;16.00;99.90
6174;DHT22;3120;48.796;9.796;2023-09-12T06:01:31;17.30;99.90
6174;DHT22;3120;48.796;9.796;2023-09-12T06:03:56;16.20;99.90
6174;DHT22;3120;48.796;9.796;2023-09-12T06:06:22;16.40;99.90
6174;DHT22;3120;48.796;9.796;2023-09-12T06:08:48;16.60;99.90
6174;DHT22;3120;48.796;9.796;2023-09-12T06:11:13;17.20;99.90
6174;DHT22;3120;48.796;9.796;2023-09-12T06:13:39;16.60;99.90
6174;DHT22;3120;48.796;9.796;2023-09-12T06:16:05;16.90;99.90
6174;DHT22;3120;48.796;9.796;2023-09-12T06:18:31;17.40;99.90
6174;DHT22;3120;48.796;9.796;2023-09-12T06:21:00;17.00;99.90
6174;DHT22;3120;48.796;9.796;2023-09-12T06:23:29;17.00;99.90
6174;DHT22;3120;48.796;9.796;2023-09-12T06:25:54;18.00;99.90
6174;DHT22;3120;48.796;9.796;2023-09-12T06:28:27;18.00;99.90
6174;DHT22;3120;48.796;9.796;2023-09-12T06:30:52;17.50;99.90
6174;DHT22;3120;48.796;9.796;2023-09-12T06:33:18;18.40;99.90
6174;DHT22;3120;48.796;9.796;2023-09-12T06:35:47;18.00;99.90
6174;DHT22;3120;48.796;9.796;2023-09-12T06:38:13;18.10;99.90
6174;DHT22;3120;48.796;9.796;2023-09-12T06:40:38;18.00;99.90
6174;DHT22;3120;48.796;9.796;2023-09-12T06:43:03;17.90;99.90
6174;DHT22;3120;48.796;9.796;2023-09-12T06:45:29;18.20;99.90
6174;DHT22;3120;48.796;9.796;2023-09-12T06:47:58;18.60;99.90
6174;DHT22;3120;48.796;9.796;2023-09-12T06:50:23;19.30;99.90
6174;DHT22;3120;48.796;9.796;2023-09-12T06:52:49;18.60;99.90
6174;DHT22;3120;48.796;9.796;2023-09-12T06:55:14;19.00;99.90
6174;DHT22;3120;48.796;9.796;2023-09-12T06:57:40;18.80;99.90
6174;DHT22;3120;48.796;9.796;2023-09-12T07:00:06;18.90;99.90
6174;DHT22;3120;48.796;9.796;2023-09-12T07:02:32;19.00;99.90
6174;DHT22;3120;48.796;9.796;2023-09-12T07:04:58;19.80;99.90
6174;DHT22;3120;48.796;9.796;2023-09-12T07:07:24;19.90;99.90
6174;DHT22;3120;48.796;9.796;2023-09-12T07:09:49;20.40;99.90
6174;DHT22;3120;48.796;9.796;2023-09-12T07:12:15;20.00;99.90
6174;DHT22;3120;48.796;9.796;2023-09-12T07:14:40;21.00;99.90
6174;DHT22;3120;48.796;9.796;2023-09-12T07:17:06;21.00;99.90
6174;DHT22;3120;48.796;9.796;2023-09-12T07:19:31;20.80;99.90
6174;DHT22;3120;48.796;9.796;2023-09-12T07:21:57;20.80;99.90
6174;DHT22;3120;48.796;9.796;2023-09-12T07:24:25;20.90;99.90
6174;DHT22;3120;48.796;9.796;2023-09-12T07:26:51;20.80;99.90
6174;DHT22;3120;48.796;9.796;2023-09-12T07:29:17;21.30;99.90
6174;DHT22;3120;48.796;9.796;2023-09-12T07:31:42;21.90;99.90
6174;DHT22;3120;48.796;9.796;2023-09-12T07:34:08;21.00;99.90
6174;DHT22;3120;48.796;9.796;2023-09-12T07:36:33;22.10;99.90
6174;DHT22;3120;48.796;9.796;2023-09-12T07:38:59;22.50;99.90
6174;DHT22;3120;48.796;9.796;2023-09-12T07:41:24;22.10;99.90
6174;DHT22;3120;48.796;9.796;2023-09-12T07:43:50;22.80;99.90
6174;DHT22;3120;48.796;9.796;2023-09-12T07:46:15;22.50;99.90
6174;DHT22;3120;48.796;9.796;2023-09-12T07:48:41;22.40;99.90
6174;DHT22;3120;48.796;9.796;2023-09-12T07:51:13;22.70;99.90
6174;DHT22;3120;48.796;9.796;2023-09-12T07:53:40;22.60;99.90
6174;DHT22;3120;48.796;9.796;2023-09-12T07:56:05;23.40;99.90
6174;DHT22;3120;48.796;9.796;2023-09-12T07:58:31;23.60;99.90
6174;DHT22;3120;48.796;9.796;2023-09-12T08:00:56;23.60;99.90
6174;DHT22;3120;48.796;9.796;2023-09-12T08:03:22;23.90;99.90
6174;DHT22;3120;48.796;9.796;2023-09-12T08:05:54;23.90;99.90
6174;DHT22;3120;48.796;9.796;2023-09-12T08:08:19;23.40;99.90
6174;DHT22;3120;48.796;9.796;2023-09-12T08:10:45;23.90;99.90
6174;DHT22;3120;48.796;9.796;2023-09-12T08:13:11;24.10;99.90
6174;DHT22;3120;48.796;9.796;2023-09-12T08:15:37;24.00;99.90
6174;DHT22;3120;48.796;9.796;2023-09-12T08:18:02;24.20;99.90
6174;DHT22;3120;48.796;9.796;2023-09-12T08:20:28;23.90;99.90
6174;DHT22;3120;48.796;9.796;2023-09-12T08:22:53;23.80;99.90
6174;DHT22;3120;48.796;9.796;2023-09-12T08:25:19;24.30;99.90
6174;DHT22;3120;48.796;9.796;2023-09-12T08:27:44;24.50;99.90
6174;DHT22;3120;48.796;9.796;2023-09-12T08:30:10;24.40;99.90
6174;DHT22;3120;48.796;9.796;2023-09-12T08:32:35;24.50;99.90
6174;DHT22;3120;48.796;9.796;2023-09-12T08:35:01;24.80;99.90
6174;DHT22;3120;48.796;9.796;2023-09-12T08:37:28;24.90;99.90
6174;DHT22;3120;48.796;9.796;2023-09-12T08:39:54;25.10;99.90
6174;DHT22;3120;48.796;9.796;2023-09-12T08:42:23;25.10;99.90
6174;DHT22;3120;48.796;9.796;2023-09-12T08:44:48;25.00;99.90
6174;DHT22;3120;48.796;9.796;2023-09-12T08:47:14;24.80;99.90
6174;DHT22;3120;48.796;9.796;2023-09-12T08:49:40;24.90;99.90
6174;DHT22;3120;48.796;9.796;2023-09-12T08:52:07;25.10;99.90
6174;DHT22;3120;48.796;9.796;2023-09-12T08:54:33;25.40;99.90
6174;DHT22;3120;48.796;9.796;2023-09-12T08:57:00;25.20;99.90
6174;DHT22;3120;48.796;9.796;2023-09-12T08:59:26;25.70;99.90
6174;DHT22;3120;48.796;9.796;2023-09-12T09:01:52;25.30;99.90
6174;DHT22;3120;48.796;9.796;2023-09-12T09:04:19;25.30;99.90
6174;DHT22;3120;48.796;9.796;2023-09-12T09:06:45;25.40;99.90
6174;DHT22;3120;48.796;9.796;2023-09-12T09:09:11;25.50;99.90
6174;DHT22;3120;48.796;9.796;2023-09-12T09:11:37;25.80;99.90
6174;DHT22;3120;48.796;9.796;2023-09-12T09:14:03;26.30;99.90
6174;DHT22;3120;48.796;9.796;2023-09-12T09:16:29;25.90;99.90
6174;DHT22;3120;48.796;9.796;2023-09-12T09:21:21;26.20;99.90
6174;DHT22;3120;48.796;9.796;2023-09-12T09:23:49;26.70;99.90
6174;DHT22;3120;48.796;9.796;2023-09-12T09:26:15;27.40;99.90
6174;DHT22;3120;48.796;9.796;2023-09-12T09:28:40;28.10;99.90
6174;DHT22;3120;48.796;9.796;2023-09-12T09:31:13;29.00;98.10
6174;DHT22;3120;48.796;9.796;2023-09-12T09:33:42;29.60;96.80
6174;DHT22;3120;48.796;9.796;2023-09-12T09:36:13;31.00;95.50
6174;DHT22;3120;48.796;9.796;2023-09-12T09:38:39;31.40;94.70
6174;DHT22;3120;48.796;9.796;2023-09-12T09:41:08;31.70;94.10
6174;DHT22;3120;48.796;9.796;2023-09-12T09:43:34;32.70;92.80
6174;DHT22;3120;48.796;9.796;2023-09-12T09:46:00;33.40;93.50
6174;DHT22;3120;48.796;9.796;2023-09-12T09:48:25;33.60;91.90
6174;DHT22;3120;48.796;9.796;2023-09-12T09:51:03;34.00;90.60
6174;DHT22;3120;48.796;9.796;2023-09-12T09:53:31;34.60;89.80
6174;DHT22;3120;48.796;9.796;2023-09-12T09:56:11;35.00;88.20
6174;DHT22;3120;48.796;9.796;2023-09-12T09:58:42;35.80;86.50
6174;DHT22;3120;48.796;9.796;2023-09-12T10:01:07;35.80;85.50
6174;DHT22;3120;48.796;9.796;2023-09-12T10:03:34;35.50;86.60
6174;DHT22;3120;48.796;9.796;2023-09-12T10:06:01;35.40;86.30
6174;DHT22;3120;48.796;9.796;2023-09-12T10:08:28;35.40;86.70
6174;DHT22;3120;48.796;9.796;2023-09-12T10:10:54;35.40;86.70
6174;DHT22;3120;48.796;9.796;2023-09-12T10:13:19;36.20;82.70
6174;DHT22;3120;48.796;9.796;2023-09-12T10:15:48;36.70;81.30
6174;DHT22;3120;48.796;9.796;2023-09-12T10:18:16;37.20;79.10
6174;DHT22;3120;48.796;9.796;2023-09-12T10:20:54;36.90;78.70
6174;DHT22;3120;48.796;9.796;2023-09-12T10:23:26;37.20;80.00
6174;DHT22;3120;48.796;9.796;2023-09-12T10:25:52;37.80;78.60
6174;DHT22;3120;48.796;9.796;2023-09-12T10:28:20;37.40;79.00
6174;DHT22;3120;48.796;9.796;2023-09-12T10:30:46;37.00;77.40
6174;DHT22;3120;48.796;9.796;2023-09-12T10:33:12;36.60;79.50
6174;DHT22;3120;48.796;9.796;2023-09-12T10:35:38;36.10;80.10
6174;DHT22;3120;48.796;9.796;2023-09-12T10:38:05;36.80;76.80
6174;DHT22;3120;48.796;9.796;2023-09-12T10:40:31;37.70;75.20
6174;DHT22;3120;48.796;9.796;2023-09-12T10:42:57;37.00;74.90
